sensor_id;sensor_type;location;lat;lon;timestamp;P1;durP1;ratioP1;P2;durP2;ratioP2
6651;SDS011;3362;50.892;10.692;2022-07-09T00:00:38;1.77;;;1.05;;
6651;SDS011;3362;50.892;10.692;2022-07-09T00:03:06;3.20;;;1.15;;
6651;SDS011;3362;50.892;10.692;2022-07-09T00:05:32;1.42;;;1.05;;
6651;SDS011;3362;50.892;10.692;2022-07-09T00:08:00;1.45;;;0.98;;
6651;SDS011;3362;50.892;10.692;2022-07-09T00:10:26;0.95;;;0.88;;
6651;SDS011;3362;50.892;10.692;2022-07-09T00:12:52;1.95;;;1.00;;
6651;SDS011;3362;50.892;10.692;2022-07-09T00:15:18;2.45;;;0.93;;
6651;SDS011;3362;50.892;10.692;2022-07-09T00:17:45;1.00;;;0.90;;
6651;SDS011;3362;50.892;10.692;2022-07-09T00:20:11;2.22;;;0.70;;
6651;SDS011;3362;50.892;10.692;2022-07-09T00:22:37;4.15;;;0.80;;
6651;SDS011;3362;50.892;10.692;2022-07-09T00:25:05;1.40;;;0.90;;
6651;SDS011;3362;50.892;10.692;2022-07-09T00:27:31;2.97;;;1.17;;
6651;SDS011;3362;50.892;10.692;2022-07-09T00:29:58;1.00;;;0.90;;
6651;SDS011;3362;50.892;10.692;2022-07-09T00:32:24;2.20;;;0.82;;
6651;SDS011;3362;50.892;10.692;2022-07-09T00:34:50;4.30;;;1.20;;
6651;SDS011;3362;50.892;10.692;2022-07-09T00:37:16;1.52;;;1.08;;
6651;SDS011;3362;50.892;10.692;2022-07-09T00:39:43;2.33;;;0.80;;
6651;SDS011;3362;50.892;10.692;2022-07-09T00:42:10;2.40;;;1.00;;
6651;SDS011;3362;50.892;10.692;2022-07-09T00:44:37;1.20;;;1.00;;
6651;SDS011;3362;50.892;10.692;2022-07-09T00:47:04;3.10;;;0.95;;
6651;SDS011;3362;50.892;10.692;2022-07-09T00:49:31;2.35;;;1.38;;
6651;SDS011;3362;50.892;10.692;2022-07-09T00:51:58;2.67;;;0.90;;
6651;SDS011;3362;50.892;10.692;2022-07-09T00:54:25;1.25;;;0.98;;
6651;SDS011;3362;50.892;10.692;2022-07-09T00:56:52;1.27;;;1.17;;
6651;SDS011;3362;50.892;10.692;2022-07-09T00:59:20;1.67;;;1.20;;
6651;SDS011;3362;50.892;10.692;2022-07-09T01:01:46;2.13;;;1.30;;
6651;SDS011;3362;50.892;10.692;2022-07-09T01:04:14;4.72;;;0.95;;
6651;SDS011;3362;50.892;10.692;2022-07-09T01:06:41;3.50;;;0.90;;
6651;SDS011;3362;50.892;10.692;2022-07-09T01:09:07;2.60;;;0.98;;
6651;SDS011;3362;50.892;10.692;2022-07-09T01:11:33;3.58;;;0.88;;
6651;SDS011;3362;50.892;10.692;2022-07-09T01:13:59;1.63;;;1.00;;
6651;SDS011;3362;50.892;10.692;2022-07-09T01:16:31;2.90;;;1.00;;
6651;SDS011;3362;50.892;10.692;2022-07-09T01:18:58;3.85;;;1.13;;
6651;SDS011;3362;50.892;10.692;2022-07-09T01:21:25;3.13;;;1.02;;
6651;SDS011;3362;50.892;10.692;2022-07-09T01:23:52;3.58;;;1.17;;
6651;SDS011;3362;50.892;10.692;2022-07-09T01:26:18;3.35;;;1.00;;
6651;SDS011;3362;50.892;10.692;2022-07-09T01:28:44;2.65;;;1.13;;
6651;SDS011;3362;50.892;10.692;2022-07-09T01:31:11;1.75;;;1.02;;
6651;SDS011;3362;50.892;10.692;2022-07-09T01:33:37;2.70;;;1.08;;
6651;SDS011;3362;50.892;10.692;2022-07-09T01:36:04;4.60;;;1.02;;
6651;SDS011;3362;50.892;10.692;2022-07-09T01:38:31;2.03;;;1.20;;
6651;SDS011;3362;50.892;10.692;2022-07-09T01:40:58;1.90;;;0.93;;
6651;SDS011;3362;50.892;10.692;2022-07-09T01:43:24;0.88;;;0.88;;
6651;SDS011;3362;50.892;10.692;2022-07-09T01:45:50;7.38;;;1.15;;
6651;SDS011;3362;50.892;10.692;2022-07-09T01:48:16;3.47;;;1.02;;
6651;SDS011;3362;50.892;10.692;2022-07-09T01:50:43;1.40;;;1.02;;
6651;SDS011;3362;50.892;10.692;2022-07-09T01:53:09;4.72;;;1.23;;
6651;SDS011;3362;50.892;10.692;2022-07-09T01:55:36;3.47;;;1.50;;
6651;SDS011;3362;50.892;10.692;2022-07-09T01:58:03;7.07;;;2.47;;
6651;SDS011;3362;50.892;10.692;2022-07-09T02:00:30;8.43;;;1.75;;
6651;SDS011;3362;50.892;10.692;2022-07-09T02:02:56;7.38;;;1.48;;
6651;SDS011;3362;50.892;10.692;2022-07-09T02:05:23;5.22;;;1.92;;
6651;SDS011;3362;50.892;10.692;2022-07-09T02:07:49;6.25;;;1.73;;
6651;SDS011;3362;50.892;10.692;2022-07-09T02:10:15;6.20;;;1.33;;
6651;SDS011;3362;50.892;10.692;2022-07-09T02:12:43;7.00;;;1.63;;
6651;SDS011;3362;50.892;10.692;2022-07-09T02:15:09;5.15;;;1.08;;
6651;SDS011;3362;50.892;10.692;2022-07-09T02:17:37;2.67;;;1.58;;
6651;SDS011;3362;50.892;10.692;2022-07-09T02:20:04;10.55;;;1.80;;
6651;SDS011;3362;50.892;10.692;2022-07-09T02:22:30;4.03;;;1.30;;
6651;SDS011;3362;50.892;10.692;2022-07-09T02:24:57;1.73;;;1.60;;
6651;SDS011;3362;50.892;10.692;2022-07-09T02:27:23;5.35;;;1.33;;
6651;SDS011;3362;50.892;10.692;2022-07-09T02:29:51;6.43;;;1.30;;
6651;SDS011;3362;50.892;10.692;2022-07-09T02:32:17;8.73;;;2.08;;
6651;SDS011;3362;50.892;10.692;2022-07-09T02:34:43;3.47;;;1.42;;
6651;SDS011;3362;50.892;10.692;2022-07-09T02:37:10;8.63;;;2.63;;
6651;SDS011;3362;50.892;10.692;2022-07-09T02:39:36;2.40;;;1.42;;
6651;SDS011;3362;50.892;10.692;2022-07-09T02:42:02;3.83;;;1.48;;
6651;SDS011;3362;50.892;10.692;2022-07-09T02:44:29;7.53;;;1.40;;
6651;SDS011;3362;50.892;10.692;2022-07-09T02:46:56;3.25;;;1.52;;
6651;SDS011;3362;50.892;10.692;2022-07-09T02:49:24;2.90;;;1.13;;
6651;SDS011;3362;50.892;10.692;2022-07-09T02:51:50;1.08;;;1.00;;
6651;SDS011;3362;50.892;10.692;2022-07-09T02:54:17;2.83;;;1.42;;
6651;SDS011;3362;50.892;10.692;2022-07-09T02:56:43;4.30;;;1.30;;
6651;SDS011;3362;50.892;10.692;2022-07-09T02:59:09;5.35;;;1.42;;
6651;SDS011;3362;50.892;10.692;2022-07-09T03:01:36;3.60;;;1.42;;
6651;SDS011;3362;50.892;10.692;2022-07-09T03:04:03;3.10;;;1.35;;
6651;SDS011;3362;50.892;10.692;2022-07-09T03:06:30;5.63;;;1.50;;
6651;SDS011;3362;50.892;10.692;2022-07-09T03:08:56;2.20;;;1.70;;
6651;SDS011;3362;50.892;10.692;2022-07-09T03:11:22;1.95;;;1.52;;
6651;SDS011;3362;50.892;10.692;2022-07-09T03:13:49;7.68;;;1.27;;
6651;SDS011;3362;50.892;10.692;2022-07-09T03:16:15;1.58;;;1.25;;
6651;SDS011;3362;50.892;10.692;2022-07-09T03:18:41;1.75;;;1.33;;
6651;SDS011;3362;50.892;10.692;2022-07-09T03:21:09;3.80;;;1.70;;
6651;SDS011;3362;50.892;10.692;2022-07-09T03:23:36;1.95;;;1.35;;
6651;SDS011;3362;50.892;10.692;2022-07-09T03:26:03;6.03;;;1.80;;
6651;SDS011;3362;50.892;10.692;2022-07-09T03:28:29;2.03;;;1.17;;
6651;SDS011;3362;50.892;10.692;2022-07-09T03:30:56;2.28;;;1.40;;
6651;SDS011;3362;50.892;10.692;2022-07-09T03:33:22;2.17;;;1.55;;
6651;SDS011;3362;50.892;10.692;2022-07-09T03:35:48;3.05;;;1.10;;
6651;SDS011;3362;50.892;10.692;2022-07-09T03:38:16;5.43;;;1.63;;
6651;SDS011;3362;50.892;10.692;2022-07-09T03:40:42;5.38;;;1.40;;
6651;SDS011;3362;50.892;10.692;2022-07-09T03:43:08;6.18;;;1.90;;
6651;SDS011;3362;50.892;10.692;2022-07-09T03:45:34;7.95;;;2.28;;
6651;SDS011;3362;50.892;10.692;2022-07-09T03:48:01;1.40;;;1.30;;
6651;SDS011;3362;50.892;10.692;2022-07-09T03:50:27;3.30;;;1.63;;
6651;SDS011;3362;50.892;10.692;2022-07-09T03:52:53;4.25;;;1.75;;
6651;SDS011;3362;50.892;10.692;2022-07-09T03:55:21;10.10;;;1.90;;
6651;SDS011;3362;50.892;10.692;2022-07-09T03:57:47;2.10;;;1.40;;
6651;SDS011;3362;50.892;10.692;2022-07-09T04:00:13;3.83;;;1.58;;
6651;SDS011;3362;50.892;10.692;2022-07-09T04:02:40;1.92;;;1.65;;
6651;SDS011;3362;50.892;10.692;2022-07-09T04:05:06;9.82;;;1.60;;
6651;SDS011;3362;50.892;10.692;2022-07-09T04:07:33;5.18;;;2.28;;
6651;SDS011;3362;50.892;10.692;2022-07-09T04:10:00;2.58;;;1.55;;
6651;SDS011;3362;50.892;10.692;2022-07-09T04:12:27;2.90;;;1.45;;
6651;SDS011;3362;50.892;10.692;2022-07-09T04:14:54;2.00;;;1.33;;
6651;SDS011;3362;50.892;10.692;2022-07-09T04:17:20;5.35;;;1.45;;
6651;SDS011;3362;50.892;10.692;2022-07-09T04:19:47;3.75;;;1.85;;
6651;SDS011;3362;50.892;10.692;2022-07-09T04:22:13;3.15;;;1.75;;
6651;SDS011;3362;50.892;10.692;2022-07-09T04:24:39;4.60;;;1.70;;
6651;SDS011;3362;50.892;10.692;2022-07-09T04:27:05;6.63;;;1.88;;
6651;SDS011;3362;50.892;10.692;2022-07-09T04:29:33;2.22;;;1.48;;
6651;SDS011;3362;50.892;10.692;2022-07-09T04:31:59;2.92;;;1.40;;
6651;SDS011;3362;50.892;10.692;2022-07-09T04:34:25;2.38;;;1.70;;
6651;SDS011;3362;50.892;10.692;2022-07-09T04:36:51;1.33;;;1.23;;
6651;SDS011;3362;50.892;10.692;2022-07-09T04:39:18;1.98;;;1.77;;
6651;SDS011;3362;50.892;10.692;2022-07-09T04:41:44;2.28;;;1.50;;
6651;SDS011;3362;50.892;10.692;2022-07-09T04:44:11;6.47;;;2.55;;
6651;SDS011;3362;50.892;10.692;2022-07-09T04:46:41;2.03;;;1.35;;
6651;SDS011;3362;50.892;10.692;2022-07-09T04:49:08;4.25;;;1.52;;
6651;SDS011;3362;50.892;10.692;2022-07-09T04:51:34;4.68;;;1.40;;
6651;SDS011;3362;50.892;10.692;2022-07-09T04:54:00;2.97;;;1.70;;
6651;SDS011;3362;50.892;10.692;2022-07-09T04:56:26;4.22;;;1.70;;
6651;SDS011;3362;50.892;10.692;2022-07-09T04:58:53;1.98;;;1.65;;
6651;SDS011;3362;50.892;10.692;2022-07-09T05:01:19;1.95;;;1.38;;
6651;SDS011;3362;50.892;10.692;2022-07-09T05:03:47;4.50;;;1.80;;
6651;SDS011;3362;50.892;10.692;2022-07-09T05:06:14;2.45;;;1.55;;
6651;SDS011;3362;50.892;10.692;2022-07-09T05:08:40;6.65;;;1.80;;
6651;SDS011;3362;50.892;10.692;2022-07-09T05:11:06;5.30;;;2.03;;
6651;SDS011;3362;50.892;10.692;2022-07-09T05:13:32;2.10;;;1.60;;
6651;SDS011;3362;50.892;10.692;2022-07-09T05:15:59;5.63;;;1.58;;
6651;SDS011;3362;50.892;10.692;2022-07-09T05:18:25;2.25;;;1.77;;
6651;SDS011;3362;50.892;10.692;2022-07-09T05:20:52;1.45;;;1.25;;
6651;SDS011;3362;50.892;10.692;2022-07-09T05:23:19;5.28;;;1.80;;
6651;SDS011;3362;50.892;10.692;2022-07-09T05:25:45;3.65;;;1.70;;
6651;SDS011;3362;50.892;10.692;2022-07-09T05:28:11;3.17;;;2.13;;
6651;SDS011;3362;50.892;10.692;2022-07-09T05:30:37;6.28;;;1.90;;
6651;SDS011;3362;50.892;10.692;2022-07-09T05:33:04;5.28;;;1.70;;
6651;SDS011;3362;50.892;10.692;2022-07-09T05:35:30;3.15;;;1.55;;
6651;SDS011;3362;50.892;10.692;2022-07-09T05:37:57;5.63;;;1.73;;
6651;SDS011;3362;50.892;10.692;2022-07-09T05:40:24;2.22;;;1.42;;
6651;SDS011;3362;50.892;10.692;2022-07-09T05:42:50;3.20;;;1.80;;
6651;SDS011;3362;50.892;10.692;2022-07-09T05:45:16;3.15;;;1.77;;
6651;SDS011;3362;50.892;10.692;2022-07-09T05:47:43;4.57;;;1.75;;
6651;SDS011;3362;50.892;10.692;2022-07-09T05:50:10;6.38;;;1.60;;
6651;SDS011;3362;50.892;10.692;2022-07-09T05:52:36;4.57;;;1.70;;
6651;SDS011;3362;50.892;10.692;2022-07-09T05:55:04;3.80;;;1.73;;
6651;SDS011;3362;50.892;10.692;2022-07-09T05:57:30;2.38;;;1.65;;
6651;SDS011;3362;50.892;10.692;2022-07-09T05:59:57;2.20;;;1.73;;
6651;SDS011;3362;50.892;10.692;2022-07-09T06:02:23;3.22;;;1.90;;
6651;SDS011;3362;50.892;10.692;2022-07-09T06:04:50;2.25;;;1.92;;
6651;SDS011;3362;50.892;10.692;2022-07-09T06:07:16;1.67;;;1.58;;
6651;SDS011;3362;50.892;10.692;2022-07-09T06:09:42;2.20;;;1.50;;
6651;SDS011;3362;50.892;10.692;2022-07-09T06:12:10;1.80;;;1.70;;
6651;SDS011;3362;50.892;10.692;2022-07-09T06:14:36;4.88;;;1.92;;
6651;SDS011;3362;50.892;10.692;2022-07-09T06:17:03;3.33;;;1.70;;
6651;SDS011;3362;50.892;10.692;2022-07-09T06:19:31;3.10;;;1.73;;
6651;SDS011;3362;50.892;10.692;2022-07-09T06:21:57;4.22;;;1.55;;
6651;SDS011;3362;50.892;10.692;2022-07-09T06:24:24;2.70;;;1.50;;
6651;SDS011;3362;50.892;10.692;2022-07-09T06:26:50;2.05;;;1.50;;
6651;SDS011;3362;50.892;10.692;2022-07-09T06:29:18;1.65;;;1.48;;
6651;SDS011;3362;50.892;10.692;2022-07-09T06:31:44;2.97;;;1.55;;
6651;SDS011;3362;50.892;10.692;2022-07-09T06:34:11;4.70;;;2.47;;
6651;SDS011;3362;50.892;10.692;2022-07-09T06:36:37;1.83;;;1.70;;
6651;SDS011;3362;50.892;10.692;2022-07-09T06:39:03;4.60;;;1.65;;
6651;SDS011;3362;50.892;10.692;2022-07-09T06:41:47;4.65;;;1.20;;
6651;SDS011;3362;50.892;10.692;2022-07-09T06:44:14;4.18;;;1.60;;
6651;SDS011;3362;50.892;10.692;2022-07-09T06:46:41;2.60;;;1.40;;
6651;SDS011;3362;50.892;10.692;2022-07-09T06:49:07;2.58;;;1.70;;
6651;SDS011;3362;50.892;10.692;2022-07-09T06:51:34;4.32;;;1.80;;
6651;SDS011;3362;50.892;10.692;2022-07-09T06:54:00;2.50;;;1.30;;
6651;SDS011;3362;50.892;10.692;2022-07-09T06:56:26;4.75;;;1.65;;
6651;SDS011;3362;50.892;10.692;2022-07-09T06:58:53;3.30;;;1.45;;
6651;SDS011;3362;50.892;10.692;2022-07-09T07:01:19;4.25;;;1.58;;
6651;SDS011;3362;50.892;10.692;2022-07-09T07:03:46;2.17;;;1.75;;
6651;SDS011;3362;50.892;10.692;2022-07-09T07:06:13;6.55;;;1.15;;
6651;SDS011;3362;50.892;10.692;2022-07-09T07:08:39;2.35;;;1.30;;
6651;SDS011;3362;50.892;10.692;2022-07-09T07:11:05;2.78;;;1.75;;
6651;SDS011;3362;50.892;10.692;2022-07-09T07:13:31;3.70;;;1.92;;
6651;SDS011;3362;50.892;10.692;2022-07-09T07:15:57;1.92;;;1.70;;
6651;SDS011;3362;50.892;10.692;2022-07-09T07:18:23;3.50;;;1.92;;
6651;SDS011;3362;50.892;10.692;2022-07-09T07:20:51;2.35;;;1.70;;
6651;SDS011;3362;50.892;10.692;2022-07-09T07:23:17;4.60;;;1.70;;
6651;SDS011;3362;50.892;10.692;2022-07-09T07:25:44;2.28;;;2.08;;
6651;SDS011;3362;50.892;10.692;2022-07-09T07:28:10;3.72;;;1.63;;
6651;SDS011;3362;50.892;10.692;2022-07-09T07:30:36;2.08;;;1.40;;
6651;SDS011;3362;50.892;10.692;2022-07-09T07:33:03;5.15;;;1.77;;
6651;SDS011;3362;50.892;10.692;2022-07-09T07:35:29;2.28;;;1.83;;
6651;SDS011;3362;50.892;10.692;2022-07-09T07:37:57;2.33;;;1.35;;
6651;SDS011;3362;50.892;10.692;2022-07-09T07:40:23;5.82;;;2.03;;
6651;SDS011;3362;50.892;10.692;2022-07-09T07:42:50;2.90;;;2.08;;
6651;SDS011;3362;50.892;10.692;2022-07-09T07:45:16;24.30;;;2.65;;
6651;SDS011;3362;50.892;10.692;2022-07-09T07:47:42;8.27;;;1.98;;
6651;SDS011;3362;50.892;10.692;2022-07-09T07:50:09;3.50;;;1.52;;
6651;SDS011;3362;50.892;10.692;2022-07-09T07:52:35;2.47;;;1.77;;
6651;SDS011;3362;50.892;10.692;2022-07-09T07:55:03;2.28;;;1.60;;
6651;SDS011;3362;50.892;10.692;2022-07-09T07:57:29;3.22;;;1.40;;
6651;SDS011;3362;50.892;10.692;2022-07-09T07:59:55;1.95;;;1.73;;
6651;SDS011;3362;50.892;10.692;2022-07-09T08:02:22;2.17;;;1.58;;
6651;SDS011;3362;50.892;10.692;2022-07-09T08:04:48;2.10;;;1.65;;
6651;SDS011;3362;50.892;10.692;2022-07-09T08:07:14;5.22;;;1.80;;
6651;SDS011;3362;50.892;10.692;2022-07-09T08:09:41;4.30;;;1.70;;
6651;SDS011;3362;50.892;10.692;2022-07-09T08:12:09;5.63;;;2.08;;
6651;SDS011;3362;50.892;10.692;2022-07-09T08:14:35;2.83;;;1.95;;
6651;SDS011;3362;50.892;10.692;2022-07-09T08:17:01;3.42;;;2.08;;
6651;SDS011;3362;50.892;10.692;2022-07-09T08:19:27;5.75;;;2.20;;
6651;SDS011;3362;50.892;10.692;2022-07-09T08:21:54;4.40;;;1.67;;
6651;SDS011;3362;50.892;10.692;2022-07-09T08:24:21;2.90;;;1.55;;
6651;SDS011;3362;50.892;10.692;2022-07-09T08:26:47;3.08;;;1.80;;
6651;SDS011;3362;50.892;10.692;2022-07-09T08:29:15;4.07;;;2.20;;
6651;SDS011;3362;50.892;10.692;2022-07-09T08:31:41;2.13;;;1.55;;
6651;SDS011;3362;50.892;10.692;2022-07-09T08:34:07;3.20;;;2.15;;
6651;SDS011;3362;50.892;10.692;2022-07-09T08:36:33;3.33;;;2.10;;
6651;SDS011;3362;50.892;10.692;2022-07-09T08:39:00;2.88;;;1.90;;
6651;SDS011;3362;50.892;10.692;2022-07-09T08:41:26;2.22;;;1.58;;
6651;SDS011;3362;50.892;10.692;2022-07-09T08:43:52;3.35;;;1.60;;
6651;SDS011;3362;50.892;10.692;2022-07-09T08:46:20;3.22;;;1.88;;
6651;SDS011;3362;50.892;10.692;2022-07-09T08:48:47;2.83;;;1.83;;
6651;SDS011;3362;50.892;10.692;2022-07-09T08:51:13;3.03;;;1.42;;
6651;SDS011;3362;50.892;10.692;2022-07-09T08:53:40;4.43;;;1.67;;
6651;SDS011;3362;50.892;10.692;2022-07-09T08:56:06;2.30;;;1.50;;
6651;SDS011;3362;50.892;10.692;2022-07-09T08:58:33;1.65;;;1.30;;
6651;SDS011;3362;50.892;10.692;2022-07-09T09:00:59;3.35;;;1.40;;
6651;SDS011;3362;50.892;10.692;2022-07-09T09:03:27;1.40;;;1.30;;
6651;SDS011;3362;50.892;10.692;2022-07-09T09:06:00;2.22;;;1.42;;
6651;SDS011;3362;50.892;10.692;2022-07-09T09:08:27;2.28;;;1.42;;
6651;SDS011;3362;50.892;10.692;2022-07-09T09:10:53;2.20;;;1.10;;
6651;SDS011;3362;50.892;10.692;2022-07-09T09:13:20;1.67;;;1.50;;
6651;SDS011;3362;50.892;10.692;2022-07-09T09:15:46;4.80;;;1.30;;
6651;SDS011;3362;50.892;10.692;2022-07-09T09:18:12;2.03;;;1.33;;
6651;SDS011;3362;50.892;10.692;2022-07-09T09:20:44;2.33;;;1.23;;
6651;SDS011;3362;50.892;10.692;2022-07-09T09:23:15;1.77;;;1.52;;
6651;SDS011;3362;50.892;10.692;2022-07-09T09:25:41;2.25;;;1.58;;
6651;SDS011;3362;50.892;10.692;2022-07-09T09:28:07;2.08;;;1.13;;
6651;SDS011;3362;50.892;10.692;2022-07-09T09:30:40;1.73;;;1.20;;
6651;SDS011;3362;50.892;10.692;2022-07-09T09:33:07;2.08;;;1.10;;
6651;SDS011;3362;50.892;10.692;2022-07-09T09:35:34;3.15;;;1.40;;
6651;SDS011;3362;50.892;10.692;2022-07-09T09:38:02;1.85;;;1.60;;
6651;SDS011;3362;50.892;10.692;2022-07-09T09:40:28;2.55;;;1.30;;
6651;SDS011;3362;50.892;10.692;2022-07-09T09:42:54;4.10;;;1.40;;
6651;SDS011;3362;50.892;10.692;2022-07-09T09:45:23;3.13;;;1.13;;
6651;SDS011;3362;50.892;10.692;2022-07-09T09:47:50;4.45;;;1.45;;
6651;SDS011;3362;50.892;10.692;2022-07-09T09:50:18;3.40;;;1.23;;
6651;SDS011;3362;50.892;10.692;2022-07-09T09:52:45;3.97;;;1.20;;
6651;SDS011;3362;50.892;10.692;2022-07-09T09:55:13;2.05;;;1.35;;
6651;SDS011;3362;50.892;10.692;2022-07-09T09:57:39;3.78;;;1.52;;
6651;SDS011;3362;50.892;10.692;2022-07-09T10:00:07;2.15;;;1.52;;
6651;SDS011;3362;50.892;10.692;2022-07-09T10:02:33;4.25;;;1.58;;
6651;SDS011;3362;50.892;10.692;2022-07-09T10:05:01;3.47;;;1.42;;
6651;SDS011;3362;50.892;10.692;2022-07-09T10:07:27;3.00;;;1.60;;
6651;SDS011;3362;50.892;10.692;2022-07-09T10:09:55;4.60;;;1.40;;
6651;SDS011;3362;50.892;10.692;2022-07-09T10:12:26;3.20;;;1.90;;
6651;SDS011;3362;50.892;10.692;2022-07-09T10:14:53;2.47;;;1.58;;
6651;SDS011;3362;50.892;10.692;2022-07-09T10:17:19;2.78;;;1.70;;
6651;SDS011;3362;50.892;10.692;2022-07-09T10:19:52;2.45;;;1.33;;
6651;SDS011;3362;50.892;10.692;2022-07-09T10:22:19;1.48;;;1.17;;
6651;SDS011;3362;50.892;10.692;2022-07-09T10:24:46;2.15;;;1.40;;
6651;SDS011;3362;50.892;10.692;2022-07-09T10:27:12;2.47;;;1.42;;
6651;SDS011;3362;50.892;10.692;2022-07-09T10:29:52;2.08;;;1.60;;
6651;SDS011;3362;50.892;10.692;2022-07-09T10:32:21;1.48;;;1.20;;
6651;SDS011;3362;50.892;10.692;2022-07-09T10:34:55;2.13;;;1.40;;
6651;SDS011;3362;50.892;10.692;2022-07-09T10:37:31;2.00;;;1.17;;
6651;SDS011;3362;50.892;10.692;2022-07-09T10:40:04;1.45;;;1.02;;
6651;SDS011;3362;50.892;10.692;2022-07-09T10:42:30;3.00;;;1.60;;
6651;SDS011;3362;50.892;10.692;2022-07-09T10:44:58;1.67;;;1.13;;
6651;SDS011;3362;50.892;10.692;2022-07-09T10:47:24;1.73;;;1.38;;
6651;SDS011;3362;50.892;10.692;2022-07-09T10:49:52;2.10;;;1.27;;
6651;SDS011;3362;50.892;10.692;2022-07-09T10:52:18;2.25;;;1.33;;
6651;SDS011;3362;50.892;10.692;2022-07-09T10:54:45;2.38;;;1.20;;
6651;SDS011;3362;50.892;10.692;2022-07-09T10:57:11;2.40;;;1.60;;
6651;SDS011;3362;50.892;10.692;2022-07-09T10:59:38;3.40;;;1.48;;
6651;SDS011;3362;50.892;10.692;2022-07-09T11:02:16;6.97;;;1.75;;
6651;SDS011;3362;50.892;10.692;2022-07-09T11:04:42;2.92;;;1.25;;
6651;SDS011;3362;50.892;10.692;2022-07-09T11:07:18;2.08;;;1.40;;
6651;SDS011;3362;50.892;10.692;2022-07-09T11:09:45;2.95;;;1.20;;
6651;SDS011;3362;50.892;10.692;2022-07-09T11:12:14;1.10;;;0.90;;
6651;SDS011;3362;50.892;10.692;2022-07-09T11:14:42;1.85;;;1.20;;
6651;SDS011;3362;50.892;10.692;2022-07-09T11:17:13;3.63;;;1.20;;
6651;SDS011;3362;50.892;10.692;2022-07-09T11:19:39;5.35;;;1.20;;
6651;SDS011;3362;50.892;10.692;2022-07-09T11:22:06;2.13;;;1.17;;
6651;SDS011;3362;50.892;10.692;2022-07-09T11:24:32;3.05;;;1.10;;
6651;SDS011;3362;50.892;10.692;2022-07-09T11:27:01;1.27;;;1.17;;
6651;SDS011;3362;50.892;10.692;2022-07-09T11:29:27;2.03;;;1.02;;
6651;SDS011;3362;50.892;10.692;2022-07-09T11:31:54;2.30;;;1.00;;
6651;SDS011;3362;50.892;10.692;2022-07-09T11:34:21;1.63;;;1.30;;
6651;SDS011;3362;50.892;10.692;2022-07-09T11:36:50;3.20;;;1.60;;
6651;SDS011;3362;50.892;10.692;2022-07-09T11:39:24;1.60;;;1.13;;
6651;SDS011;3362;50.892;10.692;2022-07-09T11:41:50;7.25;;;1.42;;
6651;SDS011;3362;50.892;10.692;2022-07-09T11:44:20;1.85;;;0.90;;
6651;SDS011;3362;50.892;10.692;2022-07-09T11:46:58;1.73;;;0.98;;
6651;SDS011;3362;50.892;10.692;2022-07-09T11:49:31;1.30;;;1.20;;
6651;SDS011;3362;50.892;10.692;2022-07-09T11:51:57;1.17;;;1.02;;
6651;SDS011;3362;50.892;10.692;2022-07-09T11:54:25;1.98;;;1.10;;
6651;SDS011;3362;50.892;10.692;2022-07-09T11:56:51;1.08;;;0.98;;
6651;SDS011;3362;50.892;10.692;2022-07-09T11:59:24;1.63;;;0.90;;
6651;SDS011;3362;50.892;10.692;2022-07-09T12:01:50;2.53;;;0.90;;
6651;SDS011;3362;50.892;10.692;2022-07-09T12:04:17;1.60;;;1.10;;
6651;SDS011;3362;50.892;10.692;2022-07-09T12:06:48;1.65;;;0.80;;
6651;SDS011;3362;50.892;10.692;2022-07-09T12:09:14;1.17;;;0.80;;
6651;SDS011;3362;50.892;10.692;2022-07-09T12:11:41;2.70;;;0.80;;
6651;SDS011;3362;50.892;10.692;2022-07-09T12:14:07;2.92;;;0.70;;
6651;SDS011;3362;50.892;10.692;2022-07-09T12:16:35;2.10;;;0.95;;
6651;SDS011;3362;50.892;10.692;2022-07-09T12:19:01;3.72;;;0.70;;
6651;SDS011;3362;50.892;10.692;2022-07-09T12:21:28;3.58;;;1.15;;
6651;SDS011;3362;50.892;10.692;2022-07-09T12:23:56;0.98;;;0.80;;
6651;SDS011;3362;50.892;10.692;2022-07-09T12:26:22;1.05;;;0.50;;
6651;SDS011;3362;50.892;10.692;2022-07-09T12:28:48;0.45;;;0.45;;
6651;SDS011;3362;50.892;10.692;2022-07-09T12:31:14;1.27;;;0.80;;
6651;SDS011;3362;50.892;10.692;2022-07-09T12:33:41;2.63;;;0.70;;
6651;SDS011;3362;50.892;10.692;2022-07-09T12:36:07;1.70;;;1.00;;
6651;SDS011;3362;50.892;10.692;2022-07-09T12:38:33;0.43;;;0.43;;
6651;SDS011;3362;50.892;10.692;2022-07-09T12:41:01;0.40;;;0.40;;
6651;SDS011;3362;50.892;10.692;2022-07-09T12:43:27;0.45;;;0.45;;
6651;SDS011;3362;50.892;10.692;2022-07-09T12:45:54;0.70;;;0.50;;
6651;SDS011;3362;50.892;10.692;2022-07-09T12:48:20;1.05;;;0.68;;
6651;SDS011;3362;50.892;10.692;2022-07-09T12:50:46;2.05;;;0.55;;
6651;SDS011;3362;50.892;10.692;2022-07-09T12:53:13;1.48;;;0.80;;
6651;SDS011;3362;50.892;10.692;2022-07-09T12:55:39;0.75;;;0.55;;
6651;SDS011;3362;50.892;10.692;2022-07-09T12:58:07;1.15;;;0.50;;
6651;SDS011;3362;50.892;10.692;2022-07-09T13:00:33;0.88;;;0.57;;
6651;SDS011;3362;50.892;10.692;2022-07-09T13:03:00;1.02;;;0.70;;
6651;SDS011;3362;50.892;10.692;2022-07-09T13:05:26;0.50;;;0.50;;
6651;SDS011;3362;50.892;10.692;2022-07-09T13:07:52;2.08;;;0.60;;
6651;SDS011;3362;50.892;10.692;2022-07-09T13:10:18;0.47;;;0.47;;
6651;SDS011;3362;50.892;10.692;2022-07-09T13:12:45;0.75;;;0.60;;
6651;SDS011;3362;50.892;10.692;2022-07-09T13:15:14;1.58;;;0.57;;
6651;SDS011;3362;50.892;10.692;2022-07-09T13:17:45;4.05;;;0.60;;
6651;SDS011;3362;50.892;10.692;2022-07-09T13:20:12;0.60;;;0.60;;
6651;SDS011;3362;50.892;10.692;2022-07-09T13:22:38;0.30;;;0.30;;
6651;SDS011;3362;50.892;10.692;2022-07-09T13:25:05;2.72;;;0.70;;
6651;SDS011;3362;50.892;10.692;2022-07-09T13:27:32;0.50;;;0.50;;
6651;SDS011;3362;50.892;10.692;2022-07-09T13:29:58;1.23;;;0.57;;
6651;SDS011;3362;50.892;10.692;2022-07-09T13:32:26;0.65;;;0.65;;
6651;SDS011;3362;50.892;10.692;2022-07-09T13:34:53;1.02;;;0.85;;
6651;SDS011;3362;50.892;10.692;2022-07-09T13:37:19;1.08;;;0.77;;
6651;SDS011;3362;50.892;10.692;2022-07-09T13:39:45;2.05;;;0.57;;
6651;SDS011;3362;50.892;10.692;2022-07-09T13:42:11;0.88;;;0.68;;
6651;SDS011;3362;50.892;10.692;2022-07-09T13:44:37;0.60;;;0.57;;
6651;SDS011;3362;50.892;10.692;2022-07-09T13:47:04;2.67;;;0.60;;
6651;SDS011;3362;50.892;10.692;2022-07-09T13:49:32;2.20;;;1.92;;
6651;SDS011;3362;50.892;10.692;2022-07-09T13:51:58;1.27;;;0.63;;
6651;SDS011;3362;50.892;10.692;2022-07-09T13:54:25;0.60;;;0.50;;
6651;SDS011;3362;50.892;10.692;2022-07-09T13:56:51;0.68;;;0.47;;
6651;SDS011;3362;50.892;10.692;2022-07-09T13:59:17;0.77;;;0.50;;
6651;SDS011;3362;50.892;10.692;2022-07-09T14:01:44;0.85;;;0.73;;
6651;SDS011;3362;50.892;10.692;2022-07-09T14:04:10;1.33;;;0.47;;
6651;SDS011;3362;50.892;10.692;2022-07-09T14:06:38;1.05;;;0.95;;
6651;SDS011;3362;50.892;10.692;2022-07-09T14:09:04;2.50;;;0.80;;
6651;SDS011;3362;50.892;10.692;2022-07-09T14:11:30;2.00;;;0.85;;
6651;SDS011;3362;50.892;10.692;2022-07-09T14:13:57;1.50;;;0.65;;
6651;SDS011;3362;50.892;10.692;2022-07-09T14:16:23;2.60;;;0.93;;
6651;SDS011;3362;50.892;10.692;2022-07-09T14:18:50;0.93;;;0.77;;
6651;SDS011;3362;50.892;10.692;2022-07-09T14:21:16;0.73;;;0.73;;
6651;SDS011;3362;50.892;10.692;2022-07-09T14:23:44;0.57;;;0.57;;
6651;SDS011;3362;50.892;10.692;2022-07-09T14:26:13;0.60;;;0.60;;
6651;SDS011;3362;50.892;10.692;2022-07-09T14:28:39;1.52;;;0.60;;
6651;SDS011;3362;50.892;10.692;2022-07-09T14:31:05;0.68;;;0.65;;
6651;SDS011;3362;50.892;10.692;2022-07-09T14:33:31;0.70;;;0.70;;
6651;SDS011;3362;50.892;10.692;2022-07-09T14:35:58;0.70;;;0.70;;
6651;SDS011;3362;50.892;10.692;2022-07-09T14:38:24;5.10;;;0.75;;
6651;SDS011;3362;50.892;10.692;2022-07-09T14:40:52;0.88;;;0.60;;
6651;SDS011;3362;50.892;10.692;2022-07-09T14:43:18;0.77;;;0.77;;
6651;SDS011;3362;50.892;10.692;2022-07-09T14:45:45;4.55;;;0.60;;
6651;SDS011;3362;50.892;10.692;2022-07-09T14:48:12;0.52;;;0.52;;
6651;SDS011;3362;50.892;10.692;2022-07-09T14:50:38;2.85;;;0.80;;
6651;SDS011;3362;50.892;10.692;2022-07-09T14:53:04;0.70;;;0.70;;
6651;SDS011;3362;50.892;10.692;2022-07-09T14:55:31;2.63;;;0.90;;
6651;SDS011;3362;50.892;10.692;2022-07-09T14:57:59;0.93;;;0.60;;